sensor_id;sensor_type;location;lat;lon;timestamp;P1;durP1;ratioP1;P2;durP2;ratioP2
16828;SDS011;8531;48.078;11.968;2023-07-22T00:00:47;2.65;;;1.90;;
16828;SDS011;8531;48.078;11.968;2023-07-22T00:03:13;2.20;;;1.77;;
16828;SDS011;8531;48.078;11.968;2023-07-22T00:05:39;4.72;;;2.13;;
16828;SDS011;8531;48.078;11.968;2023-07-22T00:08:05;2.22;;;1.75;;
16828;SDS011;8531;48.078;11.968;2023-07-22T00:10:31;3.25;;;1.95;;
16828;SDS011;8531;48.078;11.968;2023-07-22T00:12:56;3.92;;;1.88;;
16828;SDS011;8531;48.078;11.968;2023-07-22T00:15:22;6.63;;;1.90;;
16828;SDS011;8531;48.078;11.968;2023-07-22T00:17:50;7.38;;;2.08;;
16828;SDS011;8531;48.078;11.968;2023-07-22T00:20:16;2.53;;;1.85;;
16828;SDS011;8531;48.078;11.968;2023-07-22T00:22:43;2.60;;;1.70;;
16828;SDS011;8531;48.078;11.968;2023-07-22T00:25:10;3.33;;;1.90;;
16828;SDS011;8531;48.078;11.968;2023-07-22T00:27:40;2.53;;;1.60;;
16828;SDS011;8531;48.078;11.968;2023-07-22T00:30:07;2.05;;;1.75;;
16828;SDS011;8531;48.078;11.968;2023-07-22T00:32:33;1.90;;;1.38;;
16828;SDS011;8531;48.078;11.968;2023-07-22T00:35:02;4.72;;;1.70;;
16828;SDS011;8531;48.078;11.968;2023-07-22T00:37:30;2.35;;;1.88;;
16828;SDS011;8531;48.078;11.968;2023-07-22T00:39:56;3.70;;;1.73;;
16828;SDS011;8531;48.078;11.968;2023-07-22T00:42:22;3.53;;;1.70;;
16828;SDS011;8531;48.078;11.968;2023-07-22T00:44:47;3.10;;;1.80;;
16828;SDS011;8531;48.078;11.968;2023-07-22T00:47:13;3.58;;;1.98;;
16828;SDS011;8531;48.078;11.968;2023-07-22T00:49:39;2.17;;;1.67;;
16828;SDS011;8531;48.078;11.968;2023-07-22T00:52:06;4.15;;;2.08;;
16828;SDS011;8531;48.078;11.968;2023-07-22T00:54:31;5.13;;;1.70;;
16828;SDS011;8531;48.078;11.968;2023-07-22T00:56:58;3.50;;;1.67;;
16828;SDS011;8531;48.078;11.968;2023-07-22T00:59:26;2.95;;;2.13;;
16828;SDS011;8531;48.078;11.968;2023-07-22T01:01:53;4.85;;;2.00;;
16828;SDS011;8531;48.078;11.968;2023-07-22T01:04:19;3.40;;;1.95;;
16828;SDS011;8531;48.078;11.968;2023-07-22T01:06:47;5.25;;;2.10;;
16828;SDS011;8531;48.078;11.968;2023-07-22T01:09:13;5.50;;;2.42;;
16828;SDS011;8531;48.078;11.968;2023-07-22T01:11:39;4.80;;;1.83;;
16828;SDS011;8531;48.078;11.968;2023-07-22T01:14:04;2.40;;;1.77;;
16828;SDS011;8531;48.078;11.968;2023-07-22T01:16:30;2.10;;;1.50;;
16828;SDS011;8531;48.078;11.968;2023-07-22T01:18:56;2.28;;;1.73;;
16828;SDS011;8531;48.078;11.968;2023-07-22T01:21:22;2.45;;;1.52;;
16828;SDS011;8531;48.078;11.968;2023-07-22T01:23:49;1.88;;;1.55;;
16828;SDS011;8531;48.078;11.968;2023-07-22T01:26:16;2.50;;;1.70;;
16828;SDS011;8531;48.078;11.968;2023-07-22T01:28:42;2.90;;;1.40;;
16828;SDS011;8531;48.078;11.968;2023-07-22T01:31:08;2.25;;;1.77;;
16828;SDS011;8531;48.078;11.968;2023-07-22T01:33:34;2.70;;;1.60;;
16828;SDS011;8531;48.078;11.968;2023-07-22T01:36:00;3.80;;;2.05;;
16828;SDS011;8531;48.078;11.968;2023-07-22T01:38:26;2.60;;;1.67;;
16828;SDS011;8531;48.078;11.968;2023-07-22T01:40:52;2.65;;;1.80;;
16828;SDS011;8531;48.078;11.968;2023-07-22T01:43:18;3.70;;;1.70;;
16828;SDS011;8531;48.078;11.968;2023-07-22T01:45:43;2.35;;;2.00;;
16828;SDS011;8531;48.078;11.968;2023-07-22T01:48:09;2.58;;;1.75;;
16828;SDS011;8531;48.078;11.968;2023-07-22T01:50:36;3.60;;;2.05;;
16828;SDS011;8531;48.078;11.968;2023-07-22T01:53:02;1.92;;;1.65;;
16828;SDS011;8531;48.078;11.968;2023-07-22T01:55:29;3.53;;;1.90;;
16828;SDS011;8531;48.078;11.968;2023-07-22T01:57:54;3.50;;;2.20;;
16828;SDS011;8531;48.078;11.968;2023-07-22T02:00:20;2.33;;;2.00;;
16828;SDS011;8531;48.078;11.968;2023-07-22T02:02:46;2.28;;;2.08;;
16828;SDS011;8531;48.078;11.968;2023-07-22T02:05:11;4.93;;;2.15;;
16828;SDS011;8531;48.078;11.968;2023-07-22T02:07:37;2.35;;;2.00;;
16828;SDS011;8531;48.078;11.968;2023-07-22T02:10:04;4.28;;;2.63;;
16828;SDS011;8531;48.078;11.968;2023-07-22T02:12:30;3.50;;;1.85;;
16828;SDS011;8531;48.078;11.968;2023-07-22T02:14:56;2.75;;;2.10;;
16828;SDS011;8531;48.078;11.968;2023-07-22T02:17:22;2.50;;;2.15;;
16828;SDS011;8531;48.078;11.968;2023-07-22T02:19:48;4.18;;;1.65;;
16828;SDS011;8531;48.078;11.968;2023-07-22T02:22:14;1.63;;;1.52;;
16828;SDS011;8531;48.078;11.968;2023-07-22T02:24:40;3.42;;;2.05;;
16828;SDS011;8531;48.078;11.968;2023-07-22T02:27:06;2.90;;;2.03;;
16828;SDS011;8531;48.078;11.968;2023-07-22T02:29:33;2.35;;;1.95;;
16828;SDS011;8531;48.078;11.968;2023-07-22T02:31:59;2.38;;;1.88;;
16828;SDS011;8531;48.078;11.968;2023-07-22T02:34:26;3.63;;;1.80;;
16828;SDS011;8531;48.078;11.968;2023-07-22T02:36:51;2.20;;;1.85;;
16828;SDS011;8531;48.078;11.968;2023-07-22T02:39:17;2.15;;;1.95;;
16828;SDS011;8531;48.078;11.968;2023-07-22T02:41:43;3.67;;;2.00;;
16828;SDS011;8531;48.078;11.968;2023-07-22T02:44:08;2.85;;;2.10;;
16828;SDS011;8531;48.078;11.968;2023-07-22T02:46:34;7.07;;;2.20;;
16828;SDS011;8531;48.078;11.968;2023-07-22T02:49:00;2.40;;;2.08;;
16828;SDS011;8531;48.078;11.968;2023-07-22T02:51:25;2.10;;;1.90;;
16828;SDS011;8531;48.078;11.968;2023-07-22T02:53:51;2.03;;;1.83;;
16828;SDS011;8531;48.078;11.968;2023-07-22T02:56:17;3.00;;;2.30;;
16828;SDS011;8531;48.078;11.968;2023-07-22T02:58:43;3.08;;;2.00;;
16828;SDS011;8531;48.078;11.968;2023-07-22T03:01:08;5.15;;;1.70;;
16828;SDS011;8531;48.078;11.968;2023-07-22T03:03:35;2.63;;;2.42;;
16828;SDS011;8531;48.078;11.968;2023-07-22T03:06:01;4.05;;;2.22;;
16828;SDS011;8531;48.078;11.968;2023-07-22T03:08:28;2.97;;;2.15;;
16828;SDS011;8531;48.078;11.968;2023-07-22T03:10:54;2.17;;;1.98;;
16828;SDS011;8531;48.078;11.968;2023-07-22T03:13:20;3.63;;;2.10;;
16828;SDS011;8531;48.078;11.968;2023-07-22T03:15:46;3.80;;;2.10;;
16828;SDS011;8531;48.078;11.968;2023-07-22T03:18:11;2.38;;;1.92;;
16828;SDS011;8531;48.078;11.968;2023-07-22T03:20:37;3.30;;;2.10;;
16828;SDS011;8531;48.078;11.968;2023-07-22T03:23:04;3.88;;;2.40;;
16828;SDS011;8531;48.078;11.968;2023-07-22T03:25:31;2.40;;;1.98;;
16828;SDS011;8531;48.078;11.968;2023-07-22T03:27:59;4.13;;;2.30;;
16828;SDS011;8531;48.078;11.968;2023-07-22T03:30:28;3.03;;;2.40;;
16828;SDS011;8531;48.078;11.968;2023-07-22T03:32:54;2.42;;;1.70;;
16828;SDS011;8531;48.078;11.968;2023-07-22T03:35:19;2.92;;;2.17;;
16828;SDS011;8531;48.078;11.968;2023-07-22T03:37:45;3.05;;;1.95;;
16828;SDS011;8531;48.078;11.968;2023-07-22T03:40:11;3.90;;;2.50;;
16828;SDS011;8531;48.078;11.968;2023-07-22T03:42:45;2.75;;;2.47;;
16828;SDS011;8531;48.078;11.968;2023-07-22T03:45:12;3.35;;;2.08;;
16828;SDS011;8531;48.078;11.968;2023-07-22T03:47:38;3.30;;;2.35;;
16828;SDS011;8531;48.078;11.968;2023-07-22T03:50:04;3.03;;;2.38;;
16828;SDS011;8531;48.078;11.968;2023-07-22T03:52:31;4.25;;;2.58;;
16828;SDS011;8531;48.078;11.968;2023-07-22T03:54:57;2.85;;;2.65;;
16828;SDS011;8531;48.078;11.968;2023-07-22T03:57:26;3.20;;;2.38;;
16828;SDS011;8531;48.078;11.968;2023-07-22T03:59:55;2.30;;;2.10;;
16828;SDS011;8531;48.078;11.968;2023-07-22T04:02:21;2.72;;;2.15;;
16828;SDS011;8531;48.078;11.968;2023-07-22T04:04:48;3.60;;;2.42;;
16828;SDS011;8531;48.078;11.968;2023-07-22T04:07:13;2.90;;;2.30;;
16828;SDS011;8531;48.078;11.968;2023-07-22T04:09:39;2.80;;;2.20;;
16828;SDS011;8531;48.078;11.968;2023-07-22T04:12:06;2.83;;;2.50;;
16828;SDS011;8531;48.078;11.968;2023-07-22T04:14:32;3.92;;;2.47;;
16828;SDS011;8531;48.078;11.968;2023-07-22T04:16:58;2.75;;;2.33;;
16828;SDS011;8531;48.078;11.968;2023-07-22T04:19:23;2.92;;;2.60;;
16828;SDS011;8531;48.078;11.968;2023-07-22T04:21:50;4.40;;;2.70;;
16828;SDS011;8531;48.078;11.968;2023-07-22T04:24:15;5.00;;;2.33;;
16828;SDS011;8531;48.078;11.968;2023-07-22T04:26:42;4.53;;;2.60;;
16828;SDS011;8531;48.078;11.968;2023-07-22T04:29:08;3.40;;;2.45;;
16828;SDS011;8531;48.078;11.968;2023-07-22T04:31:36;3.60;;;2.15;;
16828;SDS011;8531;48.078;11.968;2023-07-22T04:34:01;3.17;;;2.30;;
16828;SDS011;8531;48.078;11.968;2023-07-22T04:36:27;2.92;;;2.47;;
16828;SDS011;8531;48.078;11.968;2023-07-22T04:38:53;2.40;;;2.20;;
16828;SDS011;8531;48.078;11.968;2023-07-22T04:41:18;4.07;;;2.35;;
16828;SDS011;8531;48.078;11.968;2023-07-22T04:43:44;4.20;;;3.15;;
16828;SDS011;8531;48.078;11.968;2023-07-22T04:46:10;3.63;;;2.90;;
16828;SDS011;8531;48.078;11.968;2023-07-22T04:48:43;3.47;;;3.03;;
16828;SDS011;8531;48.078;11.968;2023-07-22T04:51:09;7.93;;;3.15;;
16828;SDS011;8531;48.078;11.968;2023-07-22T04:53:34;5.22;;;2.55;;
16828;SDS011;8531;48.078;11.968;2023-07-22T04:56:00;4.18;;;2.83;;
16828;SDS011;8531;48.078;11.968;2023-07-22T04:58:27;3.63;;;2.50;;
16828;SDS011;8531;48.078;11.968;2023-07-22T05:00:53;3.08;;;2.75;;
16828;SDS011;8531;48.078;11.968;2023-07-22T05:03:19;4.75;;;2.80;;
16828;SDS011;8531;48.078;11.968;2023-07-22T05:05:44;3.58;;;2.60;;
16828;SDS011;8531;48.078;11.968;2023-07-22T05:08:10;3.97;;;3.15;;
16828;SDS011;8531;48.078;11.968;2023-07-22T05:10:39;7.93;;;3.42;;
16828;SDS011;8531;48.078;11.968;2023-07-22T05:13:04;2.65;;;2.40;;
16828;SDS011;8531;48.078;11.968;2023-07-22T05:15:30;2.78;;;2.58;;
16828;SDS011;8531;48.078;11.968;2023-07-22T05:17:56;3.80;;;2.80;;
16828;SDS011;8531;48.078;11.968;2023-07-22T05:20:21;2.85;;;2.60;;
16828;SDS011;8531;48.078;11.968;2023-07-22T05:22:47;3.03;;;2.72;;
16828;SDS011;8531;48.078;11.968;2023-07-22T05:25:13;3.80;;;2.42;;
16828;SDS011;8531;48.078;11.968;2023-07-22T05:27:39;3.03;;;2.33;;
16828;SDS011;8531;48.078;11.968;2023-07-22T05:30:05;4.30;;;2.72;;
16828;SDS011;8531;48.078;11.968;2023-07-22T05:32:31;2.95;;;2.30;;
16828;SDS011;8531;48.078;11.968;2023-07-22T05:34:57;3.88;;;2.50;;
16828;SDS011;8531;48.078;11.968;2023-07-22T05:37:23;4.00;;;2.40;;
16828;SDS011;8531;48.078;11.968;2023-07-22T05:39:49;3.63;;;2.42;;
16828;SDS011;8531;48.078;11.968;2023-07-22T05:42:15;5.28;;;2.50;;
16828;SDS011;8531;48.078;11.968;2023-07-22T05:44:42;4.60;;;2.55;;
16828;SDS011;8531;48.078;11.968;2023-07-22T05:47:07;3.15;;;2.67;;
16828;SDS011;8531;48.078;11.968;2023-07-22T05:49:34;3.33;;;2.55;;
16828;SDS011;8531;48.078;11.968;2023-07-22T05:51:59;4.15;;;2.58;;
16828;SDS011;8531;48.078;11.968;2023-07-22T05:54:25;3.38;;;2.80;;
16828;SDS011;8531;48.078;11.968;2023-07-22T05:56:51;3.58;;;2.60;;
16828;SDS011;8531;48.078;11.968;2023-07-22T05:59:17;3.28;;;2.45;;
16828;SDS011;8531;48.078;11.968;2023-07-22T06:01:42;2.70;;;2.50;;
16828;SDS011;8531;48.078;11.968;2023-07-22T06:04:08;3.85;;;2.60;;
16828;SDS011;8531;48.078;11.968;2023-07-22T06:06:34;4.50;;;2.42;;
16828;SDS011;8531;48.078;11.968;2023-07-22T06:09:00;3.03;;;2.33;;
16828;SDS011;8531;48.078;11.968;2023-07-22T06:11:26;2.70;;;2.30;;
16828;SDS011;8531;48.078;11.968;2023-07-22T06:13:52;2.90;;;2.55;;
16828;SDS011;8531;48.078;11.968;2023-07-22T06:16:17;5.00;;;2.92;;
16828;SDS011;8531;48.078;11.968;2023-07-22T06:18:43;2.92;;;2.60;;
16828;SDS011;8531;48.078;11.968;2023-07-22T06:21:09;5.35;;;2.78;;
16828;SDS011;8531;48.078;11.968;2023-07-22T06:23:35;2.72;;;2.30;;
16828;SDS011;8531;48.078;11.968;2023-07-22T06:26:01;2.90;;;2.40;;
16828;SDS011;8531;48.078;11.968;2023-07-22T06:28:27;5.18;;;3.33;;
16828;SDS011;8531;48.078;11.968;2023-07-22T06:30:53;3.58;;;2.80;;
16828;SDS011;8531;48.078;11.968;2023-07-22T06:33:18;5.57;;;3.08;;
16828;SDS011;8531;48.078;11.968;2023-07-22T06:35:44;3.42;;;2.95;;
16828;SDS011;8531;48.078;11.968;2023-07-22T06:38:10;3.38;;;2.75;;
16828;SDS011;8531;48.078;11.968;2023-07-22T06:40:35;3.58;;;3.20;;
16828;SDS011;8531;48.078;11.968;2023-07-22T06:43:01;3.47;;;3.08;;
16828;SDS011;8531;48.078;11.968;2023-07-22T06:45:27;4.28;;;2.63;;
16828;SDS011;8531;48.078;11.968;2023-07-22T06:47:52;3.88;;;2.60;;
16828;SDS011;8531;48.078;11.968;2023-07-22T06:50:18;5.18;;;2.88;;
16828;SDS011;8531;48.078;11.968;2023-07-22T06:52:44;3.40;;;3.10;;
16828;SDS011;8531;48.078;11.968;2023-07-22T06:55:09;4.60;;;3.28;;
16828;SDS011;8531;48.078;11.968;2023-07-22T06:57:35;5.25;;;3.00;;
16828;SDS011;8531;48.078;11.968;2023-07-22T07:00:03;2.60;;;2.40;;
16828;SDS011;8531;48.078;11.968;2023-07-22T07:02:30;4.70;;;3.35;;
16828;SDS011;8531;48.078;11.968;2023-07-22T07:04:56;3.22;;;2.90;;
16828;SDS011;8531;48.078;11.968;2023-07-22T07:07:21;3.00;;;2.67;;
16828;SDS011;8531;48.078;11.968;2023-07-22T07:09:47;4.60;;;2.80;;
16828;SDS011;8531;48.078;11.968;2023-07-22T07:12:19;3.97;;;2.88;;
16828;SDS011;8531;48.078;11.968;2023-07-22T07:14:49;3.70;;;2.80;;
16828;SDS011;8531;48.078;11.968;2023-07-22T07:17:16;3.95;;;2.88;;
16828;SDS011;8531;48.078;11.968;2023-07-22T07:19:43;3.90;;;2.92;;
16828;SDS011;8531;48.078;11.968;2023-07-22T07:22:09;4.72;;;3.17;;
16828;SDS011;8531;48.078;11.968;2023-07-22T07:24:35;4.28;;;2.50;;
16828;SDS011;8531;48.078;11.968;2023-07-22T07:27:00;4.30;;;3.03;;
16828;SDS011;8531;48.078;11.968;2023-07-22T07:29:26;4.75;;;2.92;;
16828;SDS011;8531;48.078;11.968;2023-07-22T07:31:52;3.17;;;2.63;;
16828;SDS011;8531;48.078;11.968;2023-07-22T07:34:17;5.60;;;3.17;;
16828;SDS011;8531;48.078;11.968;2023-07-22T07:36:43;3.05;;;2.47;;
16828;SDS011;8531;48.078;11.968;2023-07-22T07:39:09;4.38;;;2.63;;
16828;SDS011;8531;48.078;11.968;2023-07-22T07:41:34;5.28;;;2.72;;
16828;SDS011;8531;48.078;11.968;2023-07-22T07:44:00;5.13;;;3.20;;
16828;SDS011;8531;48.078;11.968;2023-07-22T07:46:26;5.50;;;2.80;;
16828;SDS011;8531;48.078;11.968;2023-07-22T07:48:54;3.80;;;2.83;;
16828;SDS011;8531;48.078;11.968;2023-07-22T07:51:22;2.83;;;2.45;;
16828;SDS011;8531;48.078;11.968;2023-07-22T07:53:49;4.18;;;2.83;;
16828;SDS011;8531;48.078;11.968;2023-07-22T07:56:15;4.95;;;2.70;;
16828;SDS011;8531;48.078;11.968;2023-07-22T07:58:42;3.30;;;2.67;;
16828;SDS011;8531;48.078;11.968;2023-07-22T08:01:08;2.88;;;2.15;;
16828;SDS011;8531;48.078;11.968;2023-07-22T08:03:34;3.60;;;2.63;;
16828;SDS011;8531;48.078;11.968;2023-07-22T08:06:01;2.75;;;2.00;;
16828;SDS011;8531;48.078;11.968;2023-07-22T08:08:27;3.30;;;2.10;;
16828;SDS011;8531;48.078;11.968;2023-07-22T08:11:03;2.55;;;1.80;;
16828;SDS011;8531;48.078;11.968;2023-07-22T08:13:34;1.98;;;1.85;;
16828;SDS011;8531;48.078;11.968;2023-07-22T08:16:01;4.90;;;2.38;;
16828;SDS011;8531;48.078;11.968;2023-07-22T08:18:31;3.25;;;2.40;;
16828;SDS011;8531;48.078;11.968;2023-07-22T08:20:58;1.42;;;1.33;;
16828;SDS011;8531;48.078;11.968;2023-07-22T08:23:24;2.75;;;1.45;;
16828;SDS011;8531;48.078;11.968;2023-07-22T08:25:50;2.30;;;1.38;;
16828;SDS011;8531;48.078;11.968;2023-07-22T08:28:16;2.70;;;1.60;;
16828;SDS011;8531;48.078;11.968;2023-07-22T08:30:42;3.28;;;2.05;;
16828;SDS011;8531;48.078;11.968;2023-07-22T08:33:09;3.17;;;2.13;;
16828;SDS011;8531;48.078;11.968;2023-07-22T08:35:36;4.95;;;2.35;;
16828;SDS011;8531;48.078;11.968;2023-07-22T08:38:03;2.65;;;1.73;;
16828;SDS011;8531;48.078;11.968;2023-07-22T08:40:39;2.08;;;1.60;;
16828;SDS011;8531;48.078;11.968;2023-07-22T08:43:06;2.00;;;1.80;;
16828;SDS011;8531;48.078;11.968;2023-07-22T08:45:34;1.88;;;1.60;;
16828;SDS011;8531;48.078;11.968;2023-07-22T08:48:10;3.35;;;1.25;;
16828;SDS011;8531;48.078;11.968;2023-07-22T08:53:16;1.40;;;1.00;;
16828;SDS011;8531;48.078;11.968;2023-07-22T08:55:44;2.13;;;1.02;;
16828;SDS011;8531;48.078;11.968;2023-07-22T08:58:11;1.50;;;0.90;;
16828;SDS011;8531;48.078;11.968;2023-07-22T09:00:38;1.80;;;0.90;;
16828;SDS011;8531;48.078;11.968;2023-07-22T09:03:04;1.95;;;1.20;;
16828;SDS011;8531;48.078;11.968;2023-07-22T09:05:31;1.38;;;0.90;;
16828;SDS011;8531;48.078;11.968;2023-07-22T09:07:58;1.70;;;1.10;;
16828;SDS011;8531;48.078;11.968;2023-07-22T09:10:26;2.40;;;1.00;;
16828;SDS011;8531;48.078;11.968;2023-07-22T09:12:52;2.45;;;0.98;;
16828;SDS011;8531;48.078;11.968;2023-07-22T09:15:18;2.55;;;1.65;;
16828;SDS011;8531;48.078;11.968;2023-07-22T09:17:45;2.42;;;1.40;;
16828;SDS011;8531;48.078;11.968;2023-07-22T09:20:12;1.75;;;1.10;;
16828;SDS011;8531;48.078;11.968;2023-07-22T09:22:42;3.28;;;1.13;;
16828;SDS011;8531;48.078;11.968;2023-07-22T09:25:20;1.92;;;1.70;;
16828;SDS011;8531;48.078;11.968;2023-07-22T09:27:58;2.25;;;1.25;;
16828;SDS011;8531;48.078;11.968;2023-07-22T09:32:51;2.08;;;1.70;;
16828;SDS011;8531;48.078;11.968;2023-07-22T09:35:18;2.65;;;1.38;;
16828;SDS011;8531;48.078;11.968;2023-07-22T09:37:44;2.03;;;1.48;;
16828;SDS011;8531;48.078;11.968;2023-07-22T09:40:18;1.77;;;1.23;;
16828;SDS011;8531;48.078;11.968;2023-07-22T09:42:48;2.30;;;1.45;;
16828;SDS011;8531;48.078;11.968;2023-07-22T09:45:16;2.35;;;1.42;;
16828;SDS011;8531;48.078;11.968;2023-07-22T09:47:46;3.63;;;1.50;;
16828;SDS011;8531;48.078;11.968;2023-07-22T09:50:16;2.25;;;1.60;;
16828;SDS011;8531;48.078;11.968;2023-07-22T09:52:47;4.63;;;1.35;;
16828;SDS011;8531;48.078;11.968;2023-07-22T09:55:18;1.83;;;1.38;;
16828;SDS011;8531;48.078;11.968;2023-07-22T09:57:50;2.38;;;1.75;;
16828;SDS011;8531;48.078;11.968;2023-07-22T10:00:20;3.95;;;2.50;;
16828;SDS011;8531;48.078;11.968;2023-07-22T10:02:48;2.67;;;1.35;;
16828;SDS011;8531;48.078;11.968;2023-07-22T10:05:20;3.00;;;1.42;;
16828;SDS011;8531;48.078;11.968;2023-07-22T10:07:48;2.15;;;1.15;;
16828;SDS011;8531;48.078;11.968;2023-07-22T10:10:25;2.33;;;1.33;;
16828;SDS011;8531;48.078;11.968;2023-07-22T10:12:55;2.15;;;1.27;;
16828;SDS011;8531;48.078;11.968;2023-07-22T10:15:21;1.00;;;0.88;;
16828;SDS011;8531;48.078;11.968;2023-07-22T10:17:49;1.45;;;1.08;;
16828;SDS011;8531;48.078;11.968;2023-07-22T10:20:16;1.92;;;1.10;;
16828;SDS011;8531;48.078;11.968;2023-07-22T10:22:45;3.15;;;1.40;;
16828;SDS011;8531;48.078;11.968;2023-07-22T10:25:13;0.90;;;0.88;;
16828;SDS011;8531;48.078;11.968;2023-07-22T10:27:40;1.25;;;1.00;;
16828;SDS011;8531;48.078;11.968;2023-07-22T10:30:07;1.80;;;1.10;;
16828;SDS011;8531;48.078;11.968;2023-07-22T10:32:39;3.33;;;1.05;;
16828;SDS011;8531;48.078;11.968;2023-07-22T10:35:10;1.10;;;1.00;;
16828;SDS011;8531;48.078;11.968;2023-07-22T10:37:39;0.80;;;0.80;;
16828;SDS011;8531;48.078;11.968;2023-07-22T10:40:27;1.67;;;1.25;;
16828;SDS011;8531;48.078;11.968;2023-07-22T10:42:57;1.77;;;1.35;;
16828;SDS011;8531;48.078;11.968;2023-07-22T10:45:28;2.78;;;0.90;;
16828;SDS011;8531;48.078;11.968;2023-07-22T10:50:40;1.25;;;0.95;;
16828;SDS011;8531;48.078;11.968;2023-07-22T11:06:39;1.65;;;1.08;;
16828;SDS011;8531;48.078;11.968;2023-07-22T11:09:46;1.95;;;1.15;;
16828;SDS011;8531;48.078;11.968;2023-07-22T11:12:14;1.40;;;0.90;;
16828;SDS011;8531;48.078;11.968;2023-07-22T11:14:46;1.25;;;0.90;;
16828;SDS011;8531;48.078;11.968;2023-07-22T11:17:17;1.30;;;0.88;;
16828;SDS011;8531;48.078;11.968;2023-07-22T11:19:52;1.55;;;1.17;;
16828;SDS011;8531;48.078;11.968;2023-07-22T11:22:17;1.88;;;1.10;;
16828;SDS011;8531;48.078;11.968;2023-07-22T11:24:44;2.10;;;1.25;;
16828;SDS011;8531;48.078;11.968;2023-07-22T11:27:09;1.00;;;0.90;;
16828;SDS011;8531;48.078;11.968;2023-07-22T11:29:35;2.13;;;1.20;;
16828;SDS011;8531;48.078;11.968;2023-07-22T11:32:01;1.38;;;1.17;;
16828;SDS011;8531;48.078;11.968;2023-07-22T11:34:28;1.65;;;1.00;;
16828;SDS011;8531;48.078;11.968;2023-07-22T11:36:54;2.20;;;1.40;;
16828;SDS011;8531;48.078;11.968;2023-07-22T11:39:21;1.35;;;1.05;;
16828;SDS011;8531;48.078;11.968;2023-07-22T11:41:49;3.50;;;1.10;;
16828;SDS011;8531;48.078;11.968;2023-07-22T11:44:16;2.85;;;1.40;;
16828;SDS011;8531;48.078;11.968;2023-07-22T11:47:20;1.10;;;1.00;;
16828;SDS011;8531;48.078;11.968;2023-07-22T11:49:39;1.30;;;1.00;;
16828;SDS011;8531;48.078;11.968;2023-07-22T11:52:07;4.20;;;3.15;;
16828;SDS011;8531;48.078;11.968;2023-07-22T11:54:40;1.48;;;1.05;;
16828;SDS011;8531;48.078;11.968;2023-07-22T11:57:14;1.80;;;1.38;;
16828;SDS011;8531;48.078;11.968;2023-07-22T11:59:47;2.53;;;0.95;;
16828;SDS011;8531;48.078;11.968;2023-07-22T12:02:24;1.85;;;1.30;;
16828;SDS011;8531;48.078;11.968;2023-07-22T12:05:00;1.55;;;1.25;;
16828;SDS011;8531;48.078;11.968;2023-07-22T12:07:28;1.75;;;1.20;;
16828;SDS011;8531;48.078;11.968;2023-07-22T12:09:56;1.42;;;1.30;;
16828;SDS011;8531;48.078;11.968;2023-07-22T12:12:42;2.00;;;1.30;;
16828;SDS011;8531;48.078;11.968;2023-07-22T12:15:20;1.17;;;1.00;;
16828;SDS011;8531;48.078;11.968;2023-07-22T12:17:53;1.67;;;1.10;;
16828;SDS011;8531;48.078;11.968;2023-07-22T12:20:24;1.52;;;1.20;;
16828;SDS011;8531;48.078;11.968;2023-07-22T12:22:51;1.88;;;1.30;;
16828;SDS011;8531;48.078;11.968;2023-07-22T12:25:17;1.83;;;1.48;;
16828;SDS011;8531;48.078;11.968;2023-07-22T12:27:43;1.20;;;1.10;;
16828;SDS011;8531;48.078;11.968;2023-07-22T12:30:09;1.73;;;1.00;;
16828;SDS011;8531;48.078;11.968;2023-07-22T12:32:35;1.30;;;1.20;;
16828;SDS011;8531;48.078;11.968;2023-07-22T12:35:03;1.17;;;1.08;;
16828;SDS011;8531;48.078;11.968;2023-07-22T12:37:29;2.92;;;1.20;;
16828;SDS011;8531;48.078;11.968;2023-07-22T12:39:55;1.95;;;1.38;;
16828;SDS011;8531;48.078;11.968;2023-07-22T12:42:21;1.45;;;1.20;;
16828;SDS011;8531;48.078;11.968;2023-07-22T12:44:47;1.70;;;1.20;;
16828;SDS011;8531;48.078;11.968;2023-07-22T12:47:13;1.95;;;1.23;;
16828;SDS011;8531;48.078;11.968;2023-07-22T12:49:38;1.88;;;1.27;;
16828;SDS011;8531;48.078;11.968;2023-07-22T12:52:04;1.40;;;1.10;;
16828;SDS011;8531;48.078;11.968;2023-07-22T12:54:34;1.10;;;0.98;;
16828;SDS011;8531;48.078;11.968;2023-07-22T12:57:00;1.20;;;1.02;;
16828;SDS011;8531;48.078;11.968;2023-07-22T12:59:27;1.60;;;1.40;;
16828;SDS011;8531;48.078;11.968;2023-07-22T13:01:53;1.67;;;1.25;;
16828;SDS011;8531;48.078;11.968;2023-07-22T13:04:19;1.70;;;1.15;;
16828;SDS011;8531;48.078;11.968;2023-07-22T13:06:45;3.08;;;1.08;;
16828;SDS011;8531;48.078;11.968;2023-07-22T13:09:11;1.55;;;1.15;;
16828;SDS011;8531;48.078;11.968;2023-07-22T13:11:36;7.55;;;1.45;;
16828;SDS011;8531;48.078;11.968;2023-07-22T13:14:02;2.05;;;1.30;;
16828;SDS011;8531;48.078;11.968;2023-07-22T13:16:28;1.23;;;1.05;;
16828;SDS011;8531;48.078;11.968;2023-07-22T13:18:54;2.55;;;1.30;;
16828;SDS011;8531;48.078;11.968;2023-07-22T13:21:20;1.50;;;1.25;;
16828;SDS011;8531;48.078;11.968;2023-07-22T13:23:45;2.35;;;1.33;;
16828;SDS011;8531;48.078;11.968;2023-07-22T13:26:11;2.05;;;1.27;;
16828;SDS011;8531;48.078;11.968;2023-07-22T13:28:37;1.60;;;1.48;;
16828;SDS011;8531;48.078;11.968;2023-07-22T13:31:02;2.58;;;1.10;;
16828;SDS011;8531;48.078;11.968;2023-07-22T13:33:28;1.75;;;1.00;;
16828;SDS011;8531;48.078;11.968;2023-07-22T13:35:53;1.50;;;1.40;;
16828;SDS011;8531;48.078;11.968;2023-07-22T13:38:19;1.77;;;1.40;;
16828;SDS011;8531;48.078;11.968;2023-07-22T13:40:46;2.20;;;1.17;;
16828;SDS011;8531;48.078;11.968;2023-07-22T13:43:11;1.75;;;1.33;;
16828;SDS011;8531;48.078;11.968;2023-07-22T13:45:37;1.83;;;1.40;;
16828;SDS011;8531;48.078;11.968;2023-07-22T13:48:03;1.00;;;0.90;;
16828;SDS011;8531;48.078;11.968;2023-07-22T13:50:29;1.55;;;1.23;;
16828;SDS011;8531;48.078;11.968;2023-07-22T13:52:55;2.97;;;1.10;;
16828;SDS011;8531;48.078;11.968;2023-07-22T13:55:21;1.20;;;1.10;;
16828;SDS011;8531;48.078;11.968;2023-07-22T13:57:47;1.50;;;1.30;;
16828;SDS011;8531;48.078;11.968;2023-07-22T14:00:13;1.55;;;1.27;;
16828;SDS011;8531;48.078;11.968;2023-07-22T14:02:39;1.85;;;1.60;;
16828;SDS011;8531;48.078;11.968;2023-07-22T14:05:05;1.40;;;1.20;;
16828;SDS011;8531;48.078;11.968;2023-07-22T14:07:32;1.77;;;1.67;;
16828;SDS011;8531;48.078;11.968;2023-07-22T14:09:58;2.20;;;1.60;;
16828;SDS011;8531;48.078;11.968;2023-07-22T14:12:23;1.85;;;1.27;;
16828;SDS011;8531;48.078;11.968;2023-07-22T14:14:49;4.43;;;1.30;;
16828;SDS011;8531;48.078;11.968;2023-07-22T14:17:15;2.33;;;1.52;;
16828;SDS011;8531;48.078;11.968;2023-07-22T14:19:40;3.92;;;1.55;;
16828;SDS011;8531;48.078;11.968;2023-07-22T14:22:06;1.63;;;1.10;;
16828;SDS011;8531;48.078;11.968;2023-07-22T14:24:33;1.42;;;1.33;;
16828;SDS011;8531;48.078;11.968;2023-07-22T14:26:59;1.67;;;1.40;;
16828;SDS011;8531;48.078;11.968;2023-07-22T14:29:25;2.05;;;1.33;;
16828;SDS011;8531;48.078;11.968;2023-07-22T14:31:51;1.63;;;1.30;;
16828;SDS011;8531;48.078;11.968;2023-07-22T14:34:17;1.60;;;1.27;;
16828;SDS011;8531;48.078;11.968;2023-07-22T14:36:42;2.05;;;1.40;;
16828;SDS011;8531;48.078;11.968;2023-07-22T14:39:08;2.03;;;1.45;;
16828;SDS011;8531;48.078;11.968;2023-07-22T14:41:34;1.45;;;1.25;;
16828;SDS011;8531;48.078;11.968;2023-07-22T14:44:00;1.13;;;1.02;;
16828;SDS011;8531;48.078;11.968;2023-07-22T14:46:26;2.03;;;1.20;;
16828;SDS011;8531;48.078;11.968;2023-07-22T14:48:51;1.45;;;1.23;;
16828;SDS011;8531;48.078;11.968;2023-07-22T14:51:17;1.50;;;1.30;;
16828;SDS011;8531;48.078;11.968;2023-07-22T14:53:43;1.60;;;1.30;;
16828;SDS011;8531;48.078;11.968;2023-07-22T14:56:09;3.15;;;1.30;;
16828;SDS011;8531;48.078;11.968;2023-07-22T14:58:34;1.50;;;1.40;;
16828;SDS011;8531;48.078;11.968;2023-07-22T15:01:00;1.52;;;1.35;;
16828;SDS011;8531;48.078;11.968;2023-07-22T15:03:26;2.05;;;1.63;;
16828;SDS011;8531;48.078;11.968;2023-07-22T15:05:51;3.13;;;1.35;;
16828;SDS011;8531;48.078;11.968;2023-07-22T15:08:17;2.97;;;1.20;;